createdAt,value
2023-04-16T00:02:15.243Z,7.18
2023-04-16T00:04:42.288Z,10.93
2023-04-16T00:07:09.127Z,10.85
2023-04-16T00:09:35.992Z,11.13
2023-04-16T00:12:03.666Z,6.18
2023-04-16T00:14:30.588Z,8.60
2023-04-16T00:16:57.446Z,10.88
2023-04-16T00:19:24.305Z,14.90
2023-04-16T00:21:51.201Z,9.80
2023-04-16T00:24:18.073Z,11.57
2023-04-16T00:26:46.433Z,14.23
2023-04-16T00:29:13.280Z,12.07
2023-04-16T00:31:40.095Z,12.43
2023-04-16T00:34:06.894Z,11.52
2023-04-16T00:36:34.030Z,11.48
2023-04-16T00:39:00.896Z,5.45
2023-04-16T00:41:27.772Z,11.82
2023-04-16T00:43:54.595Z,9.00
2023-04-16T00:46:23.988Z,9.63
2023-04-16T00:48:54.210Z,11.90
2023-04-16T00:51:21.656Z,8.88
2023-04-16T00:53:49.115Z,12.90
2023-04-16T00:56:17.506Z,11.02
2023-04-16T00:58:45.204Z,14.27
2023-04-16T01:01:14.474Z,10.13
2023-04-16T01:03:48.448Z,19.05
2023-04-16T01:06:18.223Z,10.85
2023-04-16T01:08:47.171Z,15.00
2023-04-16T01:11:16.046Z,10.98
2023-04-16T01:13:43.192Z,13.57
2023-04-16T01:16:12.804Z,14.35
2023-04-16T01:18:40.070Z,11.27
2023-04-16T01:21:07.725Z,12.77
2023-04-16T01:23:34.746Z,13.18
2023-04-16T01:26:02.518Z,12.95
2023-04-16T01:28:29.390Z,10.00
2023-04-16T01:30:56.583Z,16.60
2023-04-16T01:33:49.915Z,11.65
2023-04-16T01:36:16.807Z,13.93
2023-04-16T01:38:45.397Z,9.88
2023-04-16T01:41:12.189Z,11.93
2023-04-16T01:43:40.306Z,15.77
2023-04-16T01:46:31.026Z,7.72
2023-04-16T01:48:58.493Z,8.57
2023-04-16T01:51:25.724Z,17.67
2023-04-16T01:53:52.670Z,11.50
2023-04-16T01:56:19.560Z,10.75
2023-04-16T01:58:47.418Z,16.00
2023-04-16T02:01:16.393Z,8.60
2023-04-16T02:03:44.507Z,6.63
2023-04-16T02:06:11.582Z,8.32
2023-04-16T02:08:38.461Z,13.80
2023-04-16T02:11:05.350Z,15.43
2023-04-16T02:13:32.751Z,11.90
2023-04-16T02:15:59.673Z,12.77
2023-04-16T02:18:55.989Z,10.80
2023-04-16T02:21:24.291Z,15.18
2023-04-16T02:23:51.941Z,14.82
2023-04-16T02:26:23.938Z,9.82
2023-04-16T02:28:51.070Z,10.30
2023-04-16T02:31:21.791Z,11.65
2023-04-16T02:33:48.842Z,16.38
2023-04-16T02:36:15.717Z,17.27
2023-04-16T02:38:42.536Z,13.05
2023-04-16T02:41:09.370Z,13.60
2023-04-16T02:43:36.255Z,9.45
2023-04-16T02:46:04.603Z,13.65
2023-04-16T02:48:31.579Z,11.50
2023-04-16T02:50:59.120Z,16.65
2023-04-16T02:53:26.231Z,11.80
2023-04-16T02:55:54.942Z,14.73
2023-04-16T02:58:24.211Z,16.15
2023-04-16T03:00:52.239Z,16.20
2023-04-16T03:03:19.878Z,17.88
2023-04-16T03:05:47.350Z,14.57
2023-04-16T03:08:14.495Z,14.10
2023-04-16T03:10:41.763Z,14.93
2023-04-16T03:13:08.532Z,12.82
2023-04-16T03:15:35.327Z,18.73
2023-04-16T03:18:02.379Z,16.08
2023-04-16T03:20:29.341Z,12.40
2023-04-16T03:22:57.245Z,14.82
2023-04-16T03:25:24.099Z,18.88
2023-04-16T03:27:51.409Z,17.88
2023-04-16T03:30:18.667Z,18.13
2023-04-16T03:32:45.586Z,17.00
2023-04-16T03:35:12.855Z,20.20
2023-04-16T03:37:39.820Z,15.00
2023-04-16T03:40:08.350Z,15.07
2023-04-16T03:42:36.692Z,22.92
2023-04-16T03:45:04.218Z,18.08
2023-04-16T03:47:32.240Z,18.08
2023-04-16T03:50:02.308Z,19.30
2023-04-16T03:52:29.192Z,19.30
2023-04-16T03:54:57.087Z,24.48
2023-04-16T03:57:27.000Z,24.48
2023-04-16T03:59:57.929Z,19.35
2023-04-16T04:02:27.695Z,22.15
2023-04-16T04:04:54.741Z,24.17
2023-04-16T04:07:21.670Z,29.52
2023-04-16T04:09:48.554Z,23.10
2023-04-16T04:12:15.850Z,27.85
2023-04-16T04:14:44.161Z,26.90
2023-04-16T04:17:11.040Z,26.40
2023-04-16T04:19:42.294Z,27.33
2023-04-16T04:22:14.367Z,27.98
2023-04-16T04:24:41.262Z,24.67
2023-04-16T04:27:08.131Z,30.75
2023-04-16T04:29:35.029Z,25.05
2023-04-16T04:32:02.071Z,26.60
2023-04-16T04:34:29.104Z,27.85
2023-04-16T04:36:59.481Z,25.92
2023-04-16T04:39:27.828Z,30.45
2023-04-16T04:41:54.821Z,24.05
2023-04-16T04:44:21.868Z,22.80
2023-04-16T04:46:48.721Z,30.02
2023-04-16T04:49:15.796Z,28.17
2023-04-16T04:51:42.591Z,29.67
2023-04-16T04:54:09.650Z,25.33
2023-04-16T04:56:36.594Z,25.27
2023-04-16T04:59:03.470Z,20.88
2023-04-16T05:01:30.508Z,22.83
2023-04-16T05:03:57.559Z,27.05
2023-04-16T05:06:24.584Z,30.17
2023-04-16T05:08:51.375Z,20.80
2023-04-16T05:11:18.201Z,34.03
2023-04-16T05:13:45.013Z,21.92
2023-04-16T05:16:11.873Z,21.90
2023-04-16T05:18:38.684Z,25.00
2023-04-16T05:21:05.859Z,24.10
2023-04-16T05:23:32.760Z,19.20
2023-04-16T05:25:59.610Z,25.58
2023-04-16T05:28:26.460Z,29.85
2023-04-16T05:30:53.319Z,22.90
2023-04-16T05:33:20.915Z,24.48
2023-04-16T05:35:47.690Z,31.38
2023-04-16T05:38:14.526Z,25.05
2023-04-16T05:40:41.264Z,24.77
2023-04-16T05:43:08.064Z,23.63
2023-04-16T05:45:39.611Z,28.30
2023-04-16T05:48:10.540Z,28.00
2023-04-16T05:50:38.043Z,28.88
2023-04-16T05:53:07.856Z,36.47
2023-04-16T05:55:37.165Z,30.30
2023-04-16T05:58:06.645Z,33.03
2023-04-16T06:00:33.774Z,28.27
2023-04-16T06:03:01.943Z,29.13
2023-04-16T06:05:29.677Z,35.13
2023-04-16T06:07:56.807Z,30.65
2023-04-16T06:10:23.705Z,32.97
2023-04-16T06:12:50.531Z,29.30
2023-04-16T06:15:17.532Z,27.90
2023-04-16T06:17:44.356Z,27.60
2023-04-16T06:20:12.370Z,27.95
2023-04-16T06:22:39.254Z,31.77
2023-04-16T06:25:06.926Z,30.15
2023-04-16T06:27:33.994Z,32.42
2023-04-16T06:30:00.918Z,34.22
2023-04-16T06:32:27.945Z,26.13
2023-04-16T06:34:56.297Z,31.55
2023-04-16T06:37:23.104Z,33.25
2023-04-16T06:39:49.951Z,29.17
2023-04-16T06:42:16.832Z,31.48
2023-04-16T06:44:43.709Z,31.17
2023-04-16T06:47:10.793Z,33.42
2023-04-16T06:49:38.996Z,30.52
2023-04-16T06:52:06.305Z,30.30
2023-04-16T06:54:33.412Z,32.92
2023-04-16T06:57:00.259Z,34.33
2023-04-16T06:59:27.096Z,30.73
2023-04-16T07:01:54.136Z,29.73
2023-04-16T07:04:21.796Z,38.97
2023-04-16T07:06:48.661Z,31.35
2023-04-16T07:09:15.748Z,30.85
2023-04-16T07:11:42.636Z,26.60
2023-04-16T07:14:09.587Z,35.17
2023-04-16T07:16:37.894Z,25.60
2023-04-16T07:19:05.303Z,29.73
2023-04-16T07:21:32.458Z,32.00
2023-04-16T07:23:59.300Z,25.20
2023-04-16T07:26:26.237Z,27.92
2023-04-16T07:28:53.061Z,33.85
2023-04-16T07:31:19.983Z,30.05
2023-04-16T07:33:46.925Z,29.70
2023-04-16T07:36:14.130Z,24.70
2023-04-16T07:38:41.089Z,23.67
2023-04-16T07:41:08.367Z,29.90
2023-04-16T07:43:35.577Z,28.15
2023-04-16T07:46:02.572Z,23.95
2023-04-16T07:48:30.819Z,29.00
2023-04-16T07:50:58.033Z,28.45
2023-04-16T07:53:24.882Z,26.13
2023-04-16T07:55:51.816Z,27.20
2023-04-16T07:58:18.733Z,27.13
2023-04-16T08:00:45.710Z,20.63
2023-04-16T08:03:12.675Z,29.35
2023-04-16T08:05:39.813Z,27.90
2023-04-16T08:08:08.012Z,25.63
2023-04-16T08:10:34.834Z,36.08
2023-04-16T08:13:02.106Z,26.63
2023-04-16T08:15:29.328Z,29.48
2023-04-16T08:17:56.758Z,35.28
2023-04-16T08:20:23.694Z,31.23
2023-04-16T08:22:50.540Z,31.25
2023-04-16T08:25:17.443Z,28.17
2023-04-16T08:27:44.284Z,29.15
2023-04-16T08:30:11.252Z,27.80
2023-04-16T08:32:38.536Z,25.42
2023-04-16T08:35:06.009Z,34.53
2023-04-16T08:37:32.889Z,31.92
2023-04-16T08:39:59.665Z,25.55
2023-04-16T08:43:03.726Z,31.27
2023-04-16T08:45:34.851Z,31.40
2023-04-16T08:48:05.029Z,29.60
2023-04-16T08:50:34.813Z,26.27
2023-04-16T08:53:06.997Z,32.95
2023-04-16T08:58:18.783Z,35.15
2023-04-16T09:00:46.479Z,32.00
2023-04-16T09:03:13.894Z,30.98
2023-04-16T09:05:42.701Z,30.73
2023-04-16T09:08:09.640Z,32.00
2023-04-16T09:10:36.733Z,32.70
2023-04-16T09:13:03.623Z,34.42
2023-04-16T09:15:33.422Z,32.10
2023-04-16T09:18:01.977Z,34.25
2023-04-16T09:20:28.995Z,35.05
2023-04-16T09:22:57.084Z,35.80
2023-04-16T09:25:25.648Z,33.47
2023-04-16T09:27:52.663Z,34.92
2023-04-16T09:30:23.868Z,30.33
2023-04-16T09:32:53.366Z,36.00
2023-04-16T09:35:21.473Z,35.17
2023-04-16T09:37:57.627Z,33.53
2023-04-16T09:40:27.311Z,36.90
2023-04-16T09:42:58.549Z,35.90
2023-04-16T09:45:25.596Z,37.88
2023-04-16T09:47:52.566Z,32.63
2023-04-16T09:50:20.616Z,32.13
2023-04-16T09:52:51.672Z,34.67
2023-04-16T09:55:27.088Z,31.85
2023-04-16T09:58:01.068Z,37.72
2023-04-16T10:00:31.575Z,31.00
2023-04-16T10:03:08.314Z,32.95
2023-04-16T10:05:35.313Z,38.25
2023-04-16T10:08:02.403Z,34.70
2023-04-16T10:10:30.540Z,33.42
2023-04-16T10:12:58.088Z,35.30
2023-04-16T10:15:25.744Z,33.25
2023-04-16T10:17:54.102Z,33.92
2023-04-16T10:20:22.757Z,33.35
2023-04-16T10:22:50.040Z,32.80
2023-04-16T10:25:17.911Z,33.95
2023-04-16T10:27:45.891Z,33.00
2023-04-16T10:30:15.671Z,32.28
2023-04-16T10:32:43.939Z,32.00
2023-04-16T10:35:19.074Z,30.95
2023-04-16T10:37:47.455Z,29.30
2023-04-16T10:40:27.899Z,35.05
2023-04-16T10:42:58.235Z,31.40
2023-04-16T10:45:38.010Z,28.98
2023-04-16T10:48:10.028Z,30.40
2023-04-16T10:50:37.942Z,33.95
2023-04-16T10:53:23.509Z,29.75
2023-04-16T10:56:02.979Z,33.10
2023-04-16T10:58:32.072Z,29.33
2023-04-16T11:01:16.871Z,28.90
2023-04-16T11:03:47.316Z,32.33
2023-04-16T11:06:18.254Z,32.65
2023-04-16T11:08:54.524Z,26.42
2023-04-16T11:11:22.820Z,28.33
2023-04-16T11:13:50.023Z,27.95
2023-04-16T11:16:17.484Z,32.50
2023-04-16T11:18:51.296Z,31.85
2023-04-16T11:21:20.200Z,26.55
2023-04-16T11:23:52.360Z,28.80
2023-04-16T11:26:30.505Z,29.25
2023-04-16T11:28:57.727Z,25.45
2023-04-16T11:31:24.905Z,29.40
2023-04-16T11:33:51.924Z,23.95
2023-04-16T11:36:18.985Z,27.10
2023-04-16T11:38:47.036Z,31.98
2023-04-16T11:41:21.861Z,29.55
2023-04-16T11:43:48.807Z,27.15
2023-04-16T11:46:27.442Z,26.73
2023-04-16T11:48:57.980Z,31.25
2023-04-16T11:51:24.879Z,25.73
2023-04-16T11:53:54.113Z,19.48
2023-04-16T11:56:36.288Z,20.05
2023-04-16T11:59:15.559Z,23.75
2023-04-16T12:01:47.758Z,19.92
2023-04-16T12:07:06.057Z,24.52
2023-04-16T12:09:33.055Z,23.67
2023-04-16T12:11:59.865Z,23.15
2023-04-16T12:14:27.087Z,21.63
2023-04-16T12:16:54.035Z,22.63
2023-04-16T12:19:21.480Z,18.10
2023-04-16T12:21:51.151Z,17.73
2023-04-16T12:24:24.190Z,23.30
2023-04-16T12:27:03.088Z,19.35
2023-04-16T12:29:31.390Z,19.13
2023-04-16T12:31:58.253Z,19.55
2023-04-16T12:34:46.587Z,22.58
2023-04-16T12:37:14.898Z,20.10
2023-04-16T12:39:45.513Z,13.98
2023-04-16T12:42:14.786Z,18.08
2023-04-16T12:44:41.636Z,17.75
2023-04-16T12:47:08.448Z,17.10
2023-04-16T12:49:37.117Z,17.85
2023-04-16T12:52:04.640Z,17.45
2023-04-16T12:54:32.285Z,13.48
2023-04-16T12:56:59.148Z,15.27
2023-04-16T12:59:25.980Z,19.17
2023-04-16T13:01:52.970Z,19.25
2023-04-16T13:04:20.015Z,12.82
2023-04-16T13:06:47.541Z,14.30
2023-04-16T13:09:14.354Z,16.20
2023-04-16T13:11:41.134Z,15.98
2023-04-16T13:14:07.922Z,12.85
2023-04-16T13:16:34.760Z,13.80
2023-04-16T13:19:01.725Z,18.80
2023-04-16T13:21:28.594Z,18.75
2023-04-16T13:23:59.127Z,23.52
2023-04-16T13:26:26.716Z,20.55
2023-04-16T13:28:53.612Z,18.55
2023-04-16T13:31:22.232Z,17.13
2023-04-16T13:33:50.720Z,18.73
2023-04-16T13:36:17.717Z,16.95
2023-04-16T13:38:44.560Z,21.40
2023-04-16T13:41:11.443Z,16.02
2023-04-16T13:43:38.360Z,16.02
2023-04-16T13:46:05.338Z,15.43
2023-04-16T13:48:32.778Z,14.45
2023-04-16T13:50:59.575Z,16.42
2023-04-16T13:53:26.652Z,17.15
2023-04-16T13:55:53.481Z,15.40
2023-04-16T13:58:23.337Z,18.33
2023-04-16T14:00:50.529Z,17.25
2023-04-16T14:03:17.459Z,19.10
2023-04-16T14:05:44.413Z,20.98
2023-04-16T14:08:13.050Z,20.48
2023-04-16T14:10:39.927Z,18.80
2023-04-16T14:13:06.800Z,25.15
2023-04-16T14:15:33.599Z,20.15
2023-04-16T14:18:01.373Z,21.15
2023-04-16T14:20:28.246Z,17.48
2023-04-16T14:22:55.011Z,23.05
2023-04-16T14:25:21.847Z,24.58
2023-04-16T14:27:48.960Z,24.20
2023-04-16T14:30:16.692Z,22.42
2023-04-16T14:32:43.576Z,19.70
2023-04-16T14:35:10.578Z,23.95
2023-04-16T14:37:38.916Z,22.35
2023-04-16T14:40:08.862Z,17.48
2023-04-16T14:42:37.319Z,17.55
2023-04-16T14:45:06.782Z,20.77
2023-04-16T14:47:37.945Z,21.30
2023-04-16T14:50:06.255Z,23.48
2023-04-16T14:52:33.194Z,21.77
2023-04-16T14:55:00.014Z,21.58
2023-04-16T14:57:26.816Z,19.73
2023-04-16T14:59:53.624Z,21.88
2023-04-16T15:02:20.630Z,18.83
2023-04-16T15:04:47.750Z,23.13
2023-04-16T15:07:14.734Z,20.48
2023-04-16T15:09:41.575Z,19.23
2023-04-16T15:12:09.250Z,19.40
2023-04-16T15:14:36.325Z,19.05
2023-04-16T15:17:03.477Z,21.55
2023-04-16T15:19:30.392Z,19.58
2023-04-16T15:21:57.307Z,19.77
2023-04-16T15:24:24.641Z,18.48
2023-04-16T15:26:51.543Z,25.55
2023-04-16T15:29:18.354Z,22.90
2023-04-16T15:31:45.358Z,24.75
2023-04-16T15:34:13.269Z,18.88
2023-04-16T15:36:40.066Z,22.33
2023-04-16T15:39:06.894Z,27.23
2023-04-16T15:41:36.288Z,29.13
2023-04-16T15:44:03.841Z,25.20
2023-04-16T15:46:30.881Z,24.80
2023-04-16T15:48:57.745Z,23.25
2023-04-16T15:51:26.713Z,24.13
2023-04-16T15:53:53.597Z,22.15
2023-04-16T15:56:20.597Z,26.10
2023-04-16T15:58:47.733Z,21.92
2023-04-16T16:01:14.661Z,23.55
2023-04-16T16:03:41.676Z,24.58
2023-04-16T16:06:09.099Z,25.75
2023-04-16T16:08:37.759Z,23.55
2023-04-16T16:11:04.888Z,26.40
2023-04-16T16:13:31.758Z,23.02
2023-04-16T16:15:58.671Z,24.50
2023-04-16T16:18:25.559Z,23.33
2023-04-16T16:20:57.951Z,27.73
2023-04-16T16:23:25.883Z,25.40
2023-04-16T16:25:52.698Z,23.63
2023-04-16T16:28:20.558Z,26.35
2023-04-16T16:30:47.586Z,24.55
2023-04-16T16:33:14.668Z,24.60
2023-04-16T16:35:41.624Z,23.23
2023-04-16T16:38:08.462Z,22.38
2023-04-16T16:40:35.487Z,24.42
2023-04-16T16:43:02.836Z,27.75
2023-04-16T16:45:30.593Z,29.27
2023-04-16T16:47:59.037Z,25.30
2023-04-16T16:50:26.179Z,24.15
2023-04-16T16:52:53.016Z,23.90
2023-04-16T16:55:20.964Z,25.48
2023-04-16T16:57:47.751Z,25.25
2023-04-16T17:00:15.898Z,27.17
2023-04-16T17:02:43.262Z,24.35
2023-04-16T17:05:10.743Z,20.40
2023-04-16T17:07:37.900Z,24.55
2023-04-16T17:10:08.542Z,22.25
2023-04-16T17:12:35.701Z,21.45
2023-04-16T17:15:03.079Z,19.00
2023-04-16T17:17:30.921Z,23.65
2023-04-16T17:19:57.845Z,24.77
2023-04-16T17:22:24.742Z,24.35
2023-04-16T17:24:51.575Z,20.65
2023-04-16T17:27:18.429Z,20.25
2023-04-16T17:29:45.350Z,19.88
2023-04-16T17:32:12.228Z,22.10
2023-04-16T17:34:39.231Z,20.60
2023-04-16T17:37:06.116Z,21.50
2023-04-16T17:39:32.986Z,23.98
2023-04-16T17:42:01.290Z,24.33
2023-04-16T17:44:28.029Z,22.20
2023-04-16T17:46:54.977Z,20.55
2023-04-16T17:49:21.853Z,23.25
2023-04-16T17:51:49.170Z,20.05
2023-04-16T17:54:16.038Z,22.98
2023-04-16T17:56:42.944Z,21.90
2023-04-16T17:59:09.789Z,21.50
2023-04-16T18:01:36.736Z,18.98
2023-04-16T18:04:03.852Z,21.98
2023-04-16T18:06:30.990Z,22.90
2023-04-16T18:08:57.829Z,23.80
2023-04-16T18:11:24.666Z,23.55
2023-04-16T18:13:53.676Z,26.13
2023-04-16T18:16:20.784Z,23.52
2023-04-16T18:18:47.758Z,23.05
2023-04-16T18:21:14.657Z,21.02
2023-04-16T18:23:41.542Z,23.50
2023-04-16T18:26:09.275Z,22.30
2023-04-16T18:28:36.969Z,22.02
2023-04-16T18:31:06.596Z,25.20
2023-04-16T18:33:54.161Z,22.35
2023-04-16T18:36:21.126Z,20.50
2023-04-16T18:39:00.198Z,23.98
2023-04-16T18:41:28.257Z,26.15
2023-04-16T18:43:55.103Z,22.45
2023-04-16T18:46:22.061Z,26.10
2023-04-16T18:48:48.920Z,23.83
2023-04-16T18:51:16.590Z,25.92
2023-04-16T18:53:45.586Z,35.20
2023-04-16T18:56:12.978Z,22.75
2023-04-16T18:58:39.905Z,20.58
2023-04-16T19:01:11.144Z,19.45
2023-04-16T19:03:39.012Z,24.75
2023-04-16T19:06:06.606Z,23.02
2023-04-16T19:08:33.657Z,32.15
2023-04-16T19:11:00.587Z,27.13
2023-04-16T19:13:27.523Z,22.92
2023-04-16T19:16:02.055Z,28.08
2023-04-16T19:18:29.079Z,24.42
2023-04-16T19:21:02.283Z,26.00
2023-04-16T19:23:29.641Z,29.55
2023-04-16T19:25:57.154Z,24.35
2023-04-16T19:28:25.546Z,27.75
2023-04-16T19:30:53.818Z,28.77
2023-04-16T19:33:20.739Z,31.15
2023-04-16T19:35:47.772Z,29.25
2023-04-16T19:38:14.791Z,27.98
2023-04-16T19:40:46.310Z,32.88
2023-04-16T19:43:13.176Z,27.80
2023-04-16T19:45:45.197Z,31.88
2023-04-16T19:48:12.641Z,30.20
2023-04-16T19:50:41.365Z,29.80
2023-04-16T19:53:09.114Z,32.67
2023-04-16T19:55:36.510Z,30.02
2023-04-16T19:58:06.540Z,34.58
2023-04-16T20:00:43.120Z,31.77
2023-04-16T20:03:10.338Z,35.58
2023-04-16T20:05:37.172Z,30.77
2023-04-16T20:08:04.217Z,25.90
2023-04-16T20:10:31.592Z,29.38
2023-04-16T20:12:58.870Z,30.08
2023-04-16T20:15:25.962Z,29.42
2023-04-16T20:17:53.390Z,36.15
2023-04-16T20:20:22.770Z,30.55
2023-04-16T20:22:50.920Z,30.83
2023-04-16T20:25:21.595Z,28.77
2023-04-16T20:27:48.387Z,31.27
2023-04-16T20:30:15.439Z,28.00
2023-04-16T20:32:42.543Z,34.17
2023-04-16T20:35:11.371Z,35.28
2023-04-16T20:37:39.190Z,36.85
2023-04-16T20:40:10.861Z,29.73
2023-04-16T20:42:37.880Z,28.38
2023-04-16T20:45:05.614Z,33.88
2023-04-16T20:47:34.871Z,31.15
2023-04-16T20:50:02.858Z,31.92
2023-04-16T20:52:29.763Z,30.88
2023-04-16T20:54:56.573Z,36.13
2023-04-16T20:57:23.487Z,32.50
2023-04-16T20:59:50.431Z,34.03
2023-04-16T21:02:17.372Z,37.28
2023-04-16T21:04:44.544Z,34.35
2023-04-16T21:07:11.520Z,34.45
2023-04-16T21:09:38.336Z,35.45
2023-04-16T21:12:05.553Z,33.33
2023-04-16T21:14:32.365Z,36.15
2023-04-16T21:16:59.120Z,38.85
2023-04-16T21:19:25.920Z,33.88
2023-04-16T21:21:52.743Z,39.53
2023-04-16T21:24:19.551Z,37.97
2023-04-16T21:26:46.342Z,40.15
2023-04-16T21:29:13.311Z,37.78
2023-04-16T21:31:40.469Z,40.63
2023-04-16T21:34:07.350Z,36.03
2023-04-16T21:36:35.069Z,38.67
2023-04-16T21:39:02.109Z,43.25
2023-04-16T21:41:28.923Z,37.55
2023-04-16T21:43:55.756Z,38.40
2023-04-16T21:46:23.007Z,46.47
2023-04-16T21:48:49.934Z,40.67
2023-04-16T21:51:18.053Z,34.55
2023-04-16T21:53:45.001Z,36.38
2023-04-16T21:56:11.895Z,35.42
2023-04-16T21:58:38.724Z,39.58
2023-04-16T22:01:05.976Z,37.00
2023-04-16T22:03:34.394Z,29.90
2023-04-16T22:06:01.489Z,34.25
2023-04-16T22:08:30.125Z,33.75
2023-04-16T22:11:02.160Z,33.28
2023-04-16T22:13:32.452Z,35.38
2023-04-16T22:16:03.380Z,41.85
2023-04-16T22:18:33.702Z,36.25
2023-04-16T22:21:01.047Z,36.05
2023-04-16T22:23:27.878Z,37.13
2023-04-16T22:25:56.362Z,41.40
2023-04-16T22:28:23.612Z,37.15
2023-04-16T22:30:50.497Z,41.20
2023-04-16T22:33:17.388Z,37.35
2023-04-16T22:35:44.309Z,40.42
2023-04-16T22:38:11.207Z,36.72
2023-04-16T22:40:38.096Z,42.75
2023-04-16T22:43:05.296Z,35.33
2023-04-16T22:45:32.227Z,37.08
2023-04-16T22:47:59.145Z,39.92
2023-04-16T22:50:25.976Z,38.10
2023-04-16T22:52:52.866Z,37.10
2023-04-16T22:55:19.813Z,39.65
2023-04-16T22:57:47.497Z,39.92
2023-04-16T23:00:18.241Z,39.97
2023-04-16T23:02:45.696Z,35.42
2023-04-16T23:05:12.768Z,40.15
2023-04-16T23:07:39.632Z,43.03
2023-04-16T23:10:08.638Z,35.67
2023-04-16T23:12:39.202Z,41.70
2023-04-16T23:15:07.123Z,38.25
2023-04-16T23:17:35.017Z,41.30
2023-04-16T23:20:02.476Z,42.17
2023-04-16T23:22:29.534Z,33.90
2023-04-16T23:24:56.572Z,35.97
2023-04-16T23:27:23.475Z,41.92
2023-04-16T23:29:50.664Z,38.78
2023-04-16T23:32:17.565Z,40.42
2023-04-16T23:34:44.399Z,35.72
2023-04-16T23:37:11.344Z,37.33
2023-04-16T23:39:38.224Z,35.72
2023-04-16T23:42:05.108Z,40.20
2023-04-16T23:44:32.013Z,38.63
2023-04-16T23:46:59.228Z,39.03
2023-04-16T23:49:26.167Z,44.03
2023-04-16T23:51:53.027Z,39.50
2023-04-16T23:54:20.021Z,40.58
2023-04-16T23:56:46.935Z,36.70
2023-04-16T23:59:14.299Z,37.50
